Shevlin, Minnesota
Current Conditions -  °F | °C
As of 3:13 AM on Thursday 23 Oct 2014 (Local Time) from KBJI Reporting Station
Haze Haze  
Wind Chill: 46°   Ceiling: Unl
Heat Index: 48°   Visibility: 5mi
Dew Point: 47°   Wind: 5mph
Humidity: 97%   Direction: 170°S
Pressure: 29.89"   Gusts: NA
Location:  47.53°N, 95.26°W
Report Text: KBJI 230813Z AUTO 17004KT 5SM BR CLR 09/09 A2989 RMK AO2 T00890085
Loading
Personal Weather Stations






























Interactive Weather Map
Tropical Storm Tracking
New forecast layout! Learn more

10-Day Weather Forecast

Advertisements
Track Severe Weather on mobile